Time;durP1;ratioP1;P1;durP2;ratioP2;P2;SDS_P1;SDS_P2;PMS_P1;PMS_P2;Temp;Humidity;BMP_temperature;BMP_pressure;BME280_temperature;BME280_humidity;BME280_pressure;Samples;Min_cycle;Max_cycle;Signal;HPM_P1;HPM_P2
2023/06/01 00:01:55;;;;;;;10.65;4.60;;;;;;;15.61;81.99;101885.25;4976540;28;20034;-72
2023/06/01 00:04:21;;;;;;;8.15;3.92;;;;;;;15.54;82.51;101885.09;5008756;28;20405;-72
2023/06/01 00:06:46;;;;;;;13.63;3.92;;;;;;;15.52;82.40;101880.97;5004038;28;20345;-72
2023/06/01 00:09:12;;;;;;;10.52;4.30;;;;;;;15.50;82.83;101885.56;5019264;28;20037;-72
2023/06/01 00:11:37;;;;;;;13.30;5.00;;;;;;;15.49;82.70;101887.34;5021590;28;20316;-72
2023/06/01 00:14:03;;;;;;;9.20;4.57;;;;;;;15.39;83.09;101886.72;5000286;28;20046;-72
2023/06/01 00:16:30;;;;;;;11.75;4.18;;;;;;;15.37;83.47;101886.06;5020020;28;20037;-72
2023/06/01 00:18:56;;;;;;;13.82;4.90;;;;;;;15.30;83.96;101888.47;4991912;28;20105;-72
2023/06/01 00:21:22;;;;;;;10.88;4.72;;;;;;;15.29;83.90;101886.84;5003518;28;20274;-72
2023/06/01 00:23:49;;;;;;;10.98;4.60;;;;;;;15.28;83.86;101876.56;5008812;28;22127;-72
2023/06/01 00:26:14;;;;;;;16.40;5.30;;;;;;;15.27;83.89;101880.94;4986284;28;20088;-72
2023/06/01 00:28:42;;;;;;;12.50;5.25;;;;;;;15.23;83.79;101879.66;5018537;28;20042;-72
2023/06/01 00:31:08;;;;;;;9.57;4.65;;;;;;;15.15;84.25;101880.44;5002702;28;20048;-72
2023/06/01 00:33:33;;;;;;;12.68;4.93;;;;;;;15.11;84.71;101888.78;5005828;28;20060;-72
2023/06/01 00:35:59;;;;;;;8.18;4.53;;;;;;;15.03;84.63;101894.81;5008950;28;20036;-72
2023/06/01 00:38:24;;;;;;;9.25;4.75;;;;;;;14.97;84.85;101893.63;5001712;28;20069;-72
2023/06/01 00:40:50;;;;;;;13.18;6.15;;;;;;;15.01;84.74;101896.72;5020413;28;20506;-72
2023/06/01 00:43:19;;;;;;;13.65;6.43;;;;;;;14.89;85.16;101887.56;5017132;28;20045;-72
2023/06/01 00:45:45;;;;;;;12.95;6.10;;;;;;;14.83;85.38;101893.41;5017736;28;20387;-72
2023/06/01 00:48:15;;;;;;;12.60;5.68;;;;;;;14.75;85.97;101892.41;4986187;28;20041;-72
2023/06/01 00:50:41;;;;;;;15.27;6.53;;;;;;;14.63;86.12;101887.59;5002914;28;20070;-73
2023/06/01 00:53:10;;;;;;;15.75;7.68;;;;;;;14.59;86.24;101884.50;4985331;28;20297;-72
2023/06/01 00:55:36;;;;;;;12.18;5.97;;;;;;;14.48;86.94;101889.94;4999466;28;20077;-72
2023/06/01 00:58:02;;;;;;;17.08;6.75;;;;;;;14.44;87.00;101889.44;4981578;28;20030;-72
2023/06/01 01:00:29;;;;;;;16.70;7.10;;;;;;;14.49;87.09;101889.00;4999881;28;20747;-72
2023/06/01 01:02:56;;;;;;;16.23;7.05;;;;;;;14.47;87.01;101891.75;5017728;28;20694;-73
2023/06/01 01:05:26;;;;;;;10.75;6.20;;;;;;;14.41;87.13;101893.19;5016772;28;20033;-72
2023/06/01 01:08:14;;;;;;;13.32;6.80;;;;;;;14.44;86.56;101896.47;4985377;28;20035;-73
2023/06/01 01:10:56;;;;;;;16.17;6.53;;;;;;;14.29;87.16;101901.41;5001700;28;20083;-72
2023/06/01 01:13:28;;;;;;;11.88;7.05;;;;;;;14.21;87.38;101899.59;5017564;28;20049;-72
2023/06/01 01:16:03;;;;;;;15.98;7.78;;;;;;;14.12;87.93;101898.69;5006496;28;20024;-72
2023/06/01 01:18:46;;;;;;;17.70;7.63;;;;;;;13.98;88.73;101892.25;5018282;28;20411;-72
2023/06/01 01:21:30;;;;;;;19.70;7.85;;;;;;;14.03;88.45;101891.78;4999369;28;20509;-72
2023/06/01 01:24:27;;;;;;;15.57;7.80;;;;;;;13.98;88.50;101891.44;4999668;28;20258;-72
2023/06/01 01:27:03;;;;;;;13.70;7.40;;;;;;;13.93;88.73;101897.09;5019780;28;20029;-72
2023/06/01 01:29:32;;;;;;;12.93;8.05;;;;;;;13.92;89.07;101897.25;5006387;28;20465;-72
2023/06/01 01:32:00;;;;;;;15.93;8.23;;;;;;;13.79;89.53;101889.84;5019165;28;20026;-72
2023/06/01 01:34:28;;;;;;;15.27;7.90;;;;;;;13.80;89.38;101897.47;5018310;28;20041;-72
2023/06/01 01:36:55;;;;;;;22.27;8.60;;;;;;;13.81;89.60;101901.75;5019824;28;20575;-72
2023/06/01 01:39:20;;;;;;;14.63;8.65;;;;;;;13.79;89.37;101897.66;4996936;28;20052;-72
2023/06/01 01:41:46;;;;;;;14.85;7.88;;;;;;;13.74;89.64;101902.50;5012247;28;20117;-72
2023/06/01 01:44:14;;;;;;;18.65;8.90;;;;;;;13.66;89.95;101895.41;4999467;28;20453;-71
2023/06/01 01:47:09;;;;;;;17.45;9.27;;;;;;;13.59;90.65;101897.78;4985020;28;20029;-72
2023/06/01 01:53:01;;;;;;;19.13;8.73;;;;;;;13.47;90.99;101891.19;4996448;28;20042;-72
2023/06/01 01:55:28;;;;;;;19.25;9.27;;;;;;;13.43;91.71;101892.44;4984156;28;20267;-72
2023/06/01 01:57:56;;;;;;;19.00;9.50;;;;;;;13.41;91.34;101899.56;4982464;28;20033;-72
2023/06/01 02:00:23;;;;;;;23.08;9.68;;;;;;;13.33;91.71;101892.50;5005509;28;20541;-72
2023/06/01 02:02:48;;;;;;;18.23;9.65;;;;;;;13.36;91.76;101894.81;5018739;28;20047;-72
2023/06/01 02:05:15;;;;;;;23.25;8.95;;;;;;;13.29;92.46;101890.31;4997871;28;20038;-72
2023/06/01 02:07:40;;;;;;;19.00;8.90;;;;;;;13.29;92.26;101898.94;4981595;28;20025;-72
2023/06/01 02:10:06;;;;;;;18.67;9.30;;;;;;;13.21;92.35;101901.47;5015851;28;20045;-72
2023/06/01 02:12:32;;;;;;;20.58;9.82;;;;;;;13.14;92.54;101897.78;5025632;28;20124;-72
2023/06/01 02:14:58;;;;;;;16.83;9.70;;;;;;;13.06;93.04;101898.53;4988279;28;20042;-71
2023/06/01 02:17:25;;;;;;;21.75;9.82;;;;;;;13.00;93.45;101899.94;4989163;28;20056;-72
2023/06/01 02:19:51;;;;;;;22.40;9.95;;;;;;;12.97;93.43;101900.22;4981506;28;20400;-72
2023/06/01 02:22:16;;;;;;;23.40;9.75;;;;;;;12.83;94.24;101892.91;5015515;22;20037;-68
2023/06/01 02:24:42;;;;;;;25.83;10.52;;;;;;;12.88;94.16;101895.88;4973804;28;20405;-68
2023/06/01 02:27:07;;;;;;;23.27;9.27;;;;;;;12.78;94.00;101901.13;4974040;28;20030;-68
2023/06/01 02:29:33;;;;;;;20.42;10.32;;;;;;;12.73;94.83;101899.91;4976730;28;20108;-68
2023/06/01 02:31:58;;;;;;;25.85;10.75;;;;;;;12.71;94.73;101902.66;4979636;28;20026;-68
2023/06/01 02:34:24;;;;;;;18.50;10.30;;;;;;;12.57;95.56;101892.72;4959659;28;20962;-69
2023/06/01 02:36:50;;;;;;;17.55;10.60;;;;;;;12.56;96.10;101898.88;4976200;28;20481;-68
2023/06/01 02:39:17;;;;;;;21.13;9.65;;;;;;;12.54;96.21;101901.63;4986202;28;20060;-69
2023/06/01 02:41:42;;;;;;;20.95;10.07;;;;;;;12.54;95.51;101904.22;4997077;28;20045;-69
2023/06/01 02:44:08;;;;;;;22.65;10.30;;;;;;;12.54;95.59;101909.41;4995054;28;20050;-68
2023/06/01 02:46:34;;;;;;;23.13;10.77;;;;;;;12.57;95.36;101913.53;4977167;28;20035;-68
2023/06/01 02:49:00;;;;;;;21.50;11.05;;;;;;;12.52;95.22;101907.94;4954659;28;20051;-68
2023/06/01 02:51:25;;;;;;;20.52;9.93;;;;;;;12.45;95.42;101899.88;4956940;28;20651;-68
2023/06/01 02:54:01;;;;;;;27.77;11.20;;;;;;;12.36;95.81;101903.34;4958401;28;20493;-68
2023/06/01 02:56:26;;;;;;;27.00;11.90;;;;;;;12.29;95.99;101905.66;4960324;28;20041;-68
2023/06/01 02:59:06;;;;;;;23.80;11.45;;;;;;;12.23;96.35;101904.44;4957594;28;20506;-68
2023/06/01 03:01:35;;;;;;;27.10;12.13;;;;;;;12.15;96.88;101896.53;4954347;28;20030;-68
2023/06/01 03:04:07;;;;;;;25.15;11.65;;;;;;;12.13;97.29;101903.66;4958671;28;20050;-69
2023/06/01 03:06:37;;;;;;;26.27;12.07;;;;;;;12.18;96.83;101911.03;4971928;28;20039;-68
2023/06/01 03:09:21;;;;;;;26.25;11.68;;;;;;;12.17;96.83;101904.19;4970614;28;20057;-68
2023/06/01 03:11:53;;;;;;;22.20;11.75;;;;;;;12.19;96.38;101907.47;4975565;28;20315;-68
2023/06/01 03:14:20;;;;;;;27.75;11.95;;;;;;;12.07;96.78;101910.22;4993625;28;20062;-67
2023/06/01 03:16:46;;;;;;;28.02;12.05;;;;;;;12.05;96.14;101899.16;4978731;28;20500;-68
2023/06/01 03:19:17;;;;;;;27.10;12.18;;;;;;;11.90;97.05;101908.31;4977189;28;20171;-68
2023/06/01 03:21:46;;;;;;;29.15;12.77;;;;;;;11.87;96.90;101916.38;4966713;28;20897;-68
2023/06/01 03:24:12;;;;;;;30.30;13.13;;;;;;;11.83;97.37;101909.81;4993194;28;20081;-68
2023/06/01 03:26:37;;;;;;;32.33;12.35;;;;;;;11.80;97.57;101912.66;4979429;28;20042;-68
2023/06/01 03:29:04;;;;;;;27.50;13.60;;;;;;;11.70;97.58;101917.88;4968284;28;20501;-68
2023/06/01 03:31:34;;;;;;;31.13;14.02;;;;;;;11.64;97.73;101923.59;4974668;28;20063;-68
2023/06/01 03:34:00;;;;;;;36.28;16.20;;;;;;;11.61;97.85;101919.50;4960824;28;20046;-68
2023/06/01 03:36:26;;;;;;;42.08;17.70;;;;;;;11.37;98.93;101912.06;4961621;28;20058;-68
2023/06/01 03:38:51;;;;;;;38.80;19.52;;;;;;;11.40;99.08;101911.81;4985096;28;20350;-67
2023/06/01 03:41:21;;;;;;;56.03;22.52;;;;;;;11.28;100.00;101910.28;4982796;28;20060;-68
2023/06/01 03:43:47;;;;;;;61.05;25.13;;;;;;;11.30;100.00;101919.59;4981079;28;20033;-68
2023/06/01 03:46:13;;;;;;;64.70;27.45;;;;;;;11.36;100.00;101927.78;4982085;28;20420;-68
2023/06/01 03:48:39;;;;;;;75.45;26.40;;;;;;;11.28;100.00;101926.69;4981357;28;20046;-68
2023/06/01 03:51:06;;;;;;;80.50;28.55;;;;;;;11.34;100.00;101925.34;4982111;28;20022;-68
2023/06/01 03:53:31;;;;;;;72.40;27.38;;;;;;;11.38;100.00;101929.31;4981484;28;20414;-68
2023/06/01 03:55:57;;;;;;;83.13;29.77;;;;;;;11.29;100.00;101938.72;5000113;28;20038;-68
2023/06/01 03:58:30;;;;;;;80.78;31.27;;;;;;;11.20;100.00;101939.50;4977844;28;20042;-68
2023/06/01 04:00:56;;;;;;;82.05;29.85;;;;;;;11.26;100.00;101944.19;4981436;28;20031;-68
2023/06/01 04:03:23;;;;;;;75.18;27.92;;;;;;;11.22;100.00;101947.16;4980502;28;20460;-68
2023/06/01 04:05:58;;;;;;;73.68;28.83;;;;;;;11.23;100.00;101935.84;4982774;28;21921;-68
2023/06/01 04:08:25;;;;;;;74.15;27.05;;;;;;;11.21;100.00;101941.16;4959521;28;20456;-68
2023/06/01 04:10:51;;;;;;;66.47;27.50;;;;;;;11.23;100.00;101943.63;4965999;28;20043;-68
2023/06/01 04:13:16;;;;;;;60.10;25.88;;;;;;;11.10;100.00;101942.06;4977361;28;20606;-68
2023/06/01 04:15:42;;;;;;;57.50;24.63;;;;;;;11.08;100.00;101943.16;4963328;28;20039;-67
2023/06/01 04:18:08;;;;;;;57.00;23.58;;;;;;;11.17;100.00;101946.72;4974275;28;20031;-68
2023/06/01 04:20:54;;;;;;;55.88;23.58;;;;;;;10.99;99.56;101946.53;4964083;28;20548;-68
2023/06/01 04:23:21;;;;;;;63.35;25.40;;;;;;;11.01;99.52;101947.22;4959852;28;20072;-68
2023/06/01 04:25:50;;;;;;;57.97;24.65;;;;;;;11.05;98.76;101949.41;4961286;28;20171;-67
2023/06/01 04:28:17;;;;;;;57.38;24.67;;;;;;;10.97;98.88;101949.25;4962496;28;20146;-67
2023/06/01 04:30:47;;;;;;;59.90;25.50;;;;;;;11.09;99.24;101960.38;4962986;28;20026;-69
2023/06/01 04:33:13;;;;;;;64.90;25.08;;;;;;;10.95;98.45;101961.56;4979074;28;20236;-69
2023/06/01 04:35:39;;;;;;;51.45;22.42;;;;;;;10.73;99.26;101959.13;4980759;28;20374;-68
2023/06/01 04:38:05;;;;;;;53.72;22.63;;;;;;;10.85;99.38;101963.25;4965419;28;20130;-68
2023/06/01 04:40:31;;;;;;;47.67;21.40;;;;;;;10.84;98.15;101961.63;4986937;28;20407;-67
2023/06/01 04:42:56;;;;;;;49.42;21.75;;;;;;;10.82;98.19;101959.16;4982431;28;20038;-68
2023/06/01 04:45:25;;;;;;;47.25;21.83;;;;;;;10.89;97.60;101959.47;4997977;28;20062;-68
2023/06/01 04:47:52;;;;;;;40.80;18.02;;;;;;;10.96;96.92;101964.97;4977846;28;20022;-68
2023/06/01 04:50:20;;;;;;;37.10;18.45;;;;;;;11.01;96.53;101960.22;4963766;28;20019;-68
2023/06/01 04:52:47;;;;;;;39.13;17.73;;;;;;;11.01;96.44;101953.22;4962771;28;20086;-67
2023/06/01 04:55:13;;;;;;;48.28;19.10;;;;;;;10.99;96.30;101954.31;4978499;28;20065;-67
2023/06/01 04:57:39;;;;;;;39.25;17.92;;;;;;;10.99;96.00;101962.94;4964573;28;20027;-68
2023/06/01 05:00:12;;;;;;;41.17;19.83;;;;;;;11.10;94.96;101962.84;4977544;28;20043;-67
2023/06/01 05:02:38;;;;;;;42.30;18.85;;;;;;;11.03;95.49;101958.31;4961112;28;20048;-68
2023/06/01 05:05:05;;;;;;;56.83;24.88;;;;;;;11.05;95.13;101965.00;4997518;28;20046;-67
2023/06/01 05:07:31;;;;;;;72.90;30.58;;;;;;;11.05;94.75;101953.81;4998776;28;20030;-67
2023/06/01 05:09:57;;;;;;;70.22;28.85;;;;;;;11.09;95.51;101956.00;4959888;28;20050;-67
2023/06/01 05:12:23;;;;;;;76.15;29.70;;;;;;;11.10;94.64;101955.06;4964850;28;20029;-67
2023/06/01 05:14:49;;;;;;;72.78;30.77;;;;;;;11.02;95.63;101957.50;4993454;28;20547;-68
2023/06/01 05:17:15;;;;;;;79.13;32.58;;;;;;;11.06;95.48;101952.84;4996289;28;20488;-67
2023/06/01 05:19:41;;;;;;;89.05;35.42;;;;;;;10.97;95.13;101957.06;4965853;28;20066;-67
2023/06/01 05:22:06;;;;;;;89.68;36.10;;;;;;;10.86;96.42;101962.31;4960582;28;20073;-67
2023/06/01 05:24:32;;;;;;;82.55;36.55;;;;;;;10.87;96.75;101956.19;4946618;28;20039;-69
2023/06/01 05:26:57;;;;;;;90.20;35.53;;;;;;;10.88;97.23;101965.59;4977686;28;20082;-67
2023/06/01 05:29:23;;;;;;;73.93;29.77;;;;;;;10.82;96.29;101969.53;4961604;28;20055;-67
2023/06/01 05:31:49;;;;;;;75.63;31.80;;;;;;;10.88;96.80;101968.19;4964276;28;20551;-67
2023/06/01 05:34:15;;;;;;;71.60;31.65;;;;;;;10.93;95.21;101960.88;4974922;28;20034;-67
2023/06/01 05:36:41;;;;;;;72.35;33.53;;;;;;;10.98;94.73;101963.91;4981992;28;20551;-67
2023/06/01 05:39:06;;;;;;;83.25;36.55;;;;;;;10.93;95.09;101970.44;4965857;28;20080;-67
2023/06/01 05:41:33;;;;;;;79.75;33.80;;;;;;;10.86;95.38;101960.53;4981463;28;20038;-67
2023/06/01 05:43:59;;;;;;;76.32;35.05;;;;;;;10.93;94.20;101963.47;4977729;28;20046;-67
2023/06/01 05:46:25;;;;;;;77.22;34.55;;;;;;;10.94;94.20;101962.50;4980267;28;20034;-68
2023/06/01 05:48:51;;;;;;;71.80;32.95;;;;;;;11.04;93.51;101957.38;4994302;28;20381;-69
2023/06/01 05:51:17;;;;;;;68.75;30.90;;;;;;;11.19;93.22;101960.41;4980621;28;20041;-68
2023/06/01 05:53:43;;;;;;;62.03;29.23;;;;;;;11.27;91.87;101957.97;4996207;28;20031;-68
2023/06/01 05:56:09;;;;;;;57.75;28.88;;;;;;;11.42;91.55;101963.63;4995451;28;20459;-68
2023/06/01 05:58:34;;;;;;;58.28;27.67;;;;;;;11.63;90.32;101960.94;4978366;28;20572;-67
2023/06/01 06:01:00;;;;;;;44.05;21.80;;;;;;;11.59;89.36;101962.97;4981874;28;20081;-68
2023/06/01 06:03:26;;;;;;;33.78;18.33;;;;;;;11.64;89.49;101970.34;4981115;28;20399;-68
2023/06/01 06:05:51;;;;;;;33.22;17.05;;;;;;;11.76;88.99;101965.88;4982481;28;20570;-68
2023/06/01 06:08:17;;;;;;;29.70;16.08;;;;;;;11.82;88.64;101967.91;4980779;28;20041;-68
2023/06/01 06:10:42;;;;;;;32.70;15.10;;;;;;;11.90;87.26;101965.47;4982376;28;20062;-67
2023/06/01 06:13:08;;;;;;;40.40;17.83;;;;;;;12.01;86.93;101965.34;4983500;28;20041;-67
2023/06/01 06:15:33;;;;;;;47.28;22.92;;;;;;;12.14;86.60;101957.28;4976116;28;20512;-67
2023/06/01 06:17:59;;;;;;;55.40;26.92;;;;;;;12.31;85.66;101960.16;4979801;28;20037;-67
2023/06/01 06:20:24;;;;;;;41.80;20.77;;;;;;;12.39;84.54;101970.66;4978266;28;20263;-67
2023/06/01 06:22:53;;;;;;;38.95;20.20;;;;;;;12.39;82.93;101965.47;4980206;28;20049;-67
2023/06/01 06:25:19;;;;;;;40.95;20.60;;;;;;;12.33;83.04;101963.44;4979947;28;20040;-67
2023/06/01 06:27:45;;;;;;;39.58;19.45;;;;;;;12.42;83.15;101971.22;4982107;28;20035;-67
2023/06/01 06:30:11;;;;;;;34.88;18.90;;;;;;;12.60;81.97;101968.72;4979056;28;20065;-68
2023/06/01 06:32:36;;;;;;;32.28;18.40;;;;;;;12.87;80.73;101974.13;4982293;28;20035;-68
2023/06/01 06:35:02;;;;;;;33.97;18.50;;;;;;;12.57;80.81;101971.59;4980165;28;20386;-67
2023/06/01 06:37:29;;;;;;;38.28;19.05;;;;;;;12.56;81.57;101969.94;4982331;28;20057;-68
2023/06/01 06:39:55;;;;;;;60.75;31.17;;;;;;;12.76;81.75;101975.09;4977631;28;20049;-68
2023/06/01 06:42:20;;;;;;;48.75;23.67;;;;;;;12.91;80.80;101973.69;4993833;28;20037;-67
2023/06/01 06:44:46;;;;;;;54.63;27.67;;;;;;;12.88;79.59;101975.75;4977903;28;20504;-68
2023/06/01 06:47:15;;;;;;;54.33;28.65;;;;;;;13.03;79.10;101976.91;5009265;28;20049;-68
2023/06/01 06:49:40;;;;;;;44.22;23.42;;;;;;;13.12;78.58;101977.84;4979960;28;20081;-68
2023/06/01 06:52:08;;;;;;;47.40;25.83;;;;;;;12.92;79.18;101972.72;4972948;28;20080;-68
2023/06/01 06:54:35;;;;;;;43.83;25.13;;;;;;;13.44;77.85;101978.25;4983032;28;20116;-68
2023/06/01 06:57:00;;;;;;;51.20;25.83;;;;;;;14.32;75.83;101964.56;4976935;28;20640;-68
2023/06/01 06:59:26;;;;;;;31.75;16.85;;;;;;;14.79;72.20;101966.00;4963576;28;20046;-68
2023/06/01 07:01:51;;;;;;;25.83;15.93;;;;;;;15.11;69.63;101962.72;4981495;28;20674;-68
2023/06/01 07:04:17;;;;;;;28.13;15.02;;;;;;;15.18;69.59;101965.50;4981712;28;20047;-68
2023/06/01 07:06:42;;;;;;;23.00;12.93;;;;;;;15.08;69.27;101968.25;4983013;28;20409;-68
2023/06/01 07:09:09;;;;;;;24.85;13.20;;;;;;;15.30;69.61;101960.84;4994609;28;20053;-68
2023/06/01 07:11:34;;;;;;;22.00;11.98;;;;;;;15.37;69.40;101962.66;4999277;28;20450;-68
2023/06/01 07:14:00;;;;;;;20.95;11.35;;;;;;;15.48;68.21;101963.31;4981263;28;20035;-68
2023/06/01 07:16:26;;;;;;;18.05;10.68;;;;;;;15.60;67.38;101958.63;4984916;28;20068;-68
2023/06/01 07:18:52;;;;;;;18.00;9.80;;;;;;;15.66;68.09;101960.59;4995398;28;20080;-68
2023/06/01 07:21:18;;;;;;;21.70;10.07;;;;;;;16.20;65.79;101950.50;4970965;28;20042;-68
2023/06/01 07:23:45;;;;;;;24.35;11.35;;;;;;;16.41;63.79;101949.16;4974200;28;20045;-67
2023/06/01 07:26:10;;;;;;;18.75;9.70;;;;;;;16.75;62.17;101951.53;4987322;28;20121;-67
2023/06/01 07:28:36;;;;;;;17.73;9.18;;;;;;;17.25;61.66;101946.91;5005516;28;20304;-67
2023/06/01 07:31:03;;;;;;;22.75;9.70;;;;;;;17.57;60.17;101952.94;4987236;28;20166;-70
2023/06/01 07:33:28;;;;;;;15.90;9.70;;;;;;;17.52;58.57;101950.84;4986287;28;20039;-68
2023/06/01 07:35:56;;;;;;;17.73;9.02;;;;;;;17.90;58.01;101956.97;4987341;28;20539;-70
2023/06/01 07:38:22;;;;;;;17.15;9.90;;;;;;;18.16;57.11;101961.03;4986999;28;20046;-68
2023/06/01 07:40:50;;;;;;;18.92;10.18;;;;;;;17.65;58.04;101953.72;5000133;28;20398;-68
2023/06/01 07:43:15;;;;;;;17.67;9.25;;;;;;;18.03;57.67;101958.22;4981055;28;20167;-68
2023/06/01 07:45:41;;;;;;;21.77;9.73;;;;;;;18.27;56.95;101952.72;4967857;28;20507;-68
2023/06/01 07:48:06;;;;;;;19.92;9.52;;;;;;;18.02;56.21;101957.38;4981501;28;20047;-68
2023/06/01 07:50:32;;;;;;;15.75;9.13;;;;;;;17.95;55.79;101959.09;4982213;28;20029;-68
2023/06/01 07:52:58;;;;;;;21.35;9.25;;;;;;;18.23;55.97;101958.50;4964895;28;20362;-68
2023/06/01 07:55:23;;;;;;;13.50;8.20;;;;;;;18.44;55.72;101948.13;4980157;28;20041;-68
2023/06/01 07:57:49;;;;;;;18.58;10.05;;;;;;;18.78;54.80;101949.41;4959434;28;20046;-68
2023/06/01 08:00:17;;;;;;;17.45;9.40;;;;;;;18.99;53.99;101961.00;4978572;28;20062;-68
2023/06/01 08:02:43;;;;;;;20.30;9.75;;;;;;;19.03;53.50;101955.19;4981233;28;20026;-68
2023/06/01 08:05:10;;;;;;;17.85;9.43;;;;;;;19.23;52.89;101955.44;4958348;28;22672;-68
2023/06/01 08:07:37;;;;;;;20.90;11.18;;;;;;;18.86;54.57;101951.94;4962605;28;20042;-68
2023/06/01 08:10:05;;;;;;;27.38;17.50;;;;;;;19.31;53.81;101957.13;4969923;28;20109;-68
2023/06/01 08:12:31;;;;;;;24.42;11.75;;;;;;;19.42;52.52;101948.75;4968552;28;20532;-68
2023/06/01 08:14:58;;;;;;;22.92;12.20;;;;;;;19.80;52.93;101942.44;4962709;28;20042;-68
2023/06/01 08:17:24;;;;;;;18.90;10.60;;;;;;;19.81;50.96;101950.13;4967309;28;20145;-68
2023/06/01 08:19:49;;;;;;;19.25;10.73;;;;;;;19.51;52.52;101948.63;4965270;28;20149;-68
2023/06/01 08:22:16;;;;;;;22.67;13.23;;;;;;;19.20;53.49;101944.47;4968876;28;20039;-68
2023/06/01 08:24:43;;;;;;;26.30;12.43;;;;;;;19.52;52.60;101952.88;5034881;23;20041;-72
2023/06/01 08:27:23;;;;;;;20.77;11.77;;;;;;;19.57;51.58;101947.84;5046080;28;20029;-73
2023/06/01 08:29:49;;;;;;;19.20;10.60;;;;;;;19.28;52.65;101946.16;5010042;28;20553;-73
2023/06/01 08:32:16;;;;;;;18.95;9.85;;;;;;;19.87;51.71;101948.56;5035596;28;20107;-72
2023/06/01 08:34:46;;;;;;;18.35;9.73;;;;;;;19.77;50.77;101941.00;5033123;28;20215;-73
2023/06/01 08:37:12;;;;;;;21.92;9.70;;;;;;;19.99;50.94;101941.78;5013673;28;20044;-72
2023/06/01 08:39:38;;;;;;;14.70;8.73;;;;;;;20.15;50.34;101939.88;5040180;28;20528;-73
2023/06/01 08:42:12;;;;;;;18.20;9.10;;;;;;;20.38;50.26;101939.59;5041077;28;20435;-72
2023/06/01 08:44:41;;;;;;;20.73;10.38;;;;;;;20.64;50.30;101927.63;5049169;28;20181;-73
2023/06/01 08:47:08;;;;;;;17.98;9.52;;;;;;;20.51;49.28;101929.16;5037407;28;20036;-72
2023/06/01 08:49:35;;;;;;;25.90;11.27;;;;;;;20.51;49.47;101926.53;5017816;28;20118;-73
2023/06/01 08:52:04;;;;;;;22.30;11.55;;;;;;;20.47;48.71;101930.53;5039201;28;20152;-72
2023/06/01 08:54:30;;;;;;;18.20;10.70;;;;;;;20.66;48.68;101925.59;5054440;28;20041;-72
2023/06/01 08:56:59;;;;;;;18.50;11.65;;;;;;;20.60;48.42;101921.94;5034748;28;20041;-72
2023/06/01 08:59:25;;;;;;;19.17;10.25;;;;;;;20.65;48.49;101927.44;5050453;28;20056;-73
2023/06/01 09:01:52;;;;;;;16.70;10.55;;;;;;;20.86;48.33;101917.78;5055494;28;20116;-73
2023/06/01 09:04:18;;;;;;;20.77;10.43;;;;;;;20.82;48.01;101912.09;5039528;28;20063;-73
2023/06/01 09:06:43;;;;;;;19.60;11.65;;;;;;;20.74;47.24;101910.44;5040237;28;20036;-72
2023/06/01 09:09:12;;;;;;;22.45;12.45;;;;;;;20.29;48.60;101915.25;5037521;28;20040;-72
2023/06/01 09:11:37;;;;;;;26.45;13.63;;;;;;;19.98;50.38;101911.19;5021717;28;20028;-72
2023/06/01 09:14:20;;;;;;;22.70;13.45;;;;;;;20.55;49.70;101903.22;5055690;28;20044;-72
2023/06/01 09:16:46;;;;;;;26.20;12.82;;;;;;;20.93;49.03;101898.34;5034253;28;20032;-72
2023/06/01 09:19:12;;;;;;;18.38;11.40;;;;;;;21.09;48.47;101896.34;5054188;28;21450;-73
2023/06/01 09:21:37;;;;;;;17.88;10.52;;;;;;;20.96;48.33;101883.94;5025576;28;20037;-72
2023/06/01 09:24:22;;;;;;;24.73;11.73;;;;;;;20.49;48.75;101896.09;5033229;28;20044;-73
2023/06/01 09:26:51;;;;;;;21.95;10.35;;;;;;;20.99;47.88;101896.75;5054574;28;20040;-72
2023/06/01 09:29:17;;;;;;;18.30;10.45;;;;;;;21.38;47.18;101885.47;5024048;28;20045;-72
2023/06/01 09:31:47;;;;;;;15.10;9.15;;;;;;;21.33;47.24;101881.78;5055505;28;20059;-72
2023/06/01 09:34:20;;;;;;;19.73;10.02;;;;;;;21.17;47.40;101882.97;5034407;28;20064;-72
2023/06/01 09:36:54;;;;;;;24.52;10.95;;;;;;;21.23;47.28;101878.72;5056513;28;20587;-72
2023/06/01 09:39:21;;;;;;;17.90;8.90;;;;;;;21.33;47.10;101866.78;5023823;28;20041;-72
2023/06/01 09:41:48;;;;;;;15.32;9.55;;;;;;;21.74;46.14;101872.91;5054064;28;21176;-72
2023/06/01 09:44:21;;;;;;;19.73;9.85;;;;;;;21.51;45.94;101871.50;5035444;28;20055;-72
2023/06/01 09:46:52;;;;;;;18.77;9.50;;;;;;;21.95;45.58;101872.66;5024394;28;20081;-72
2023/06/01 09:49:31;;;;;;;17.73;10.07;;;;;;;21.84;45.89;101872.50;5055995;28;20037;-72
2023/06/01 09:52:06;;;;;;;19.15;9.60;;;;;;;21.36;46.35;101878.75;5036190;28;20028;-72
2023/06/01 09:54:34;;;;;;;22.88;9.90;;;;;;;21.16;45.67;101876.09;5038203;28;20052;-72
2023/06/01 09:57:02;;;;;;;20.90;9.15;;;;;;;21.56;46.12;101878.78;5021248;28;20028;-72
2023/06/01 09:59:29;;;;;;;17.27;10.07;;;;;;;21.47;46.78;101877.38;5038007;28;20048;-72
2023/06/01 10:01:58;;;;;;;20.20;10.90;;;;;;;21.42;46.94;101870.03;5039342;28;20535;-72
2023/06/01 10:04:26;;;;;;;21.92;9.63;;;;;;;21.81;46.13;101872.88;5033936;28;20048;-72
2023/06/01 10:06:55;;;;;;;18.17;10.07;;;;;;;22.26;45.59;101863.28;5036387;28;20028;-72
2023/06/01 10:09:24;;;;;;;14.38;8.52;;;;;;;22.30;44.74;101861.84;5053353;28;20068;-72
2023/06/01 10:11:53;;;;;;;18.63;9.65;;;;;;;22.23;44.33;101860.22;5058215;28;20039;-72
2023/06/01 10:14:20;;;;;;;22.88;9.82;;;;;;;22.15;45.27;101863.88;5037308;28;20410;-73
2023/06/01 10:16:48;;;;;;;18.85;8.98;;;;;;;22.08;46.15;101861.28;5053514;28;20054;-72
2023/06/01 10:19:14;;;;;;;18.92;10.07;;;;;;;21.99;44.73;101872.25;5037672;28;20049;-72
2023/06/01 10:21:39;;;;;;;16.98;9.45;;;;;;;21.94;45.72;101862.31;5024115;28;20043;-73
2023/06/01 10:24:07;;;;;;;19.85;9.57;;;;;;;21.80;44.50;101860.72;5037506;28;20135;-73
2023/06/01 10:27:10;;;;;;;19.77;8.70;;;;;;;21.82;45.40;101848.94;5018120;28;20494;-73
2023/06/01 10:29:36;;;;;;;19.98;9.13;;;;;;;21.92;44.84;101844.03;4991448;28;20394;-73
2023/06/01 10:32:02;;;;;;;16.77;8.10;;;;;;;21.84;45.21;101844.25;5021430;28;20066;-73
2023/06/01 10:34:42;;;;;;;16.88;7.88;;;;;;;22.17;43.88;101849.47;5033551;28;20186;-73
2023/06/01 10:37:07;;;;;;;12.95;7.82;;;;;;;21.70;46.44;101845.28;5055243;28;20037;-72
2023/06/01 10:39:34;;;;;;;18.20;8.60;;;;;;;21.83;45.33;101844.47;5022755;28;20517;-73
2023/06/01 10:42:15;;;;;;;14.38;7.15;;;;;;;22.09;45.35;101835.66;5038260;28;20122;-73
2023/06/01 10:44:48;;;;;;;13.38;7.65;;;;;;;22.20;45.31;101829.75;5036186;28;20490;-72
2023/06/01 10:47:17;;;;;;;14.35;7.75;;;;;;;22.40;45.58;101844.75;5038010;28;20371;-73
2023/06/01 10:49:49;;;;;;;15.63;8.57;;;;;;;22.14;45.37;101836.66;5035921;28;20122;-73
2023/06/01 10:52:35;;;;;;;15.70;8.25;;;;;;;21.91;46.36;101837.13;5026377;28;20029;-72
2023/06/01 10:55:07;;;;;;;20.73;8.98;;;;;;;21.97;44.97;101841.59;5037300;28;20064;-73
2023/06/01 10:58:11;;;;;;;16.77;8.73;;;;;;;21.79;45.30;101846.69;5039605;28;20036;-73
2023/06/01 11:00:40;;;;;;;17.20;8.30;;;;;;;22.03;45.87;101834.66;5039618;28;20249;-73
2023/06/01 11:03:05;;;;;;;16.88;9.20;;;;;;;22.47;44.06;101829.66;5055212;28;20036;-73
2023/06/01 11:05:51;;;;;;;16.30;8.43;;;;;;;22.43;45.18;101834.56;5018732;28;20471;-72
2023/06/01 11:08:28;;;;;;;18.02;8.45;;;;;;;22.47;45.41;101824.38;5053585;28;20102;-73
2023/06/01 11:11:00;;;;;;;14.43;8.35;;;;;;;22.87;44.97;101826.81;5023951;28;20035;-72
2023/06/01 11:13:29;;;;;;;21.05;8.38;;;;;;;22.67;44.70;101829.56;5023169;28;20032;-72
2023/06/01 11:16:04;;;;;;;21.20;8.30;;;;;;;22.76;45.34;101823.03;5036324;28;20028;-73
2023/06/01 11:19:00;;;;;;;15.20;8.57;;;;;;;22.87;44.57;101826.81;5024868;28;20044;-73
2023/06/01 11:21:37;;;;;;;33.90;8.82;;;;;;;22.77;43.41;101821.97;5058061;28;20029;-72